createdAt,value
2022-08-17T00:01:07.895Z,61.99
2022-08-17T00:03:38.748Z,61.82
2022-08-17T00:06:06.019Z,61.01
2022-08-17T00:08:33.296Z,56.93
2022-08-17T00:11:00.590Z,58.17
2022-08-17T00:13:27.875Z,58.89
2022-08-17T00:15:55.140Z,59.50
2022-08-17T00:19:04.185Z,57.50
2022-08-17T00:21:11.663Z,55.83
2022-08-17T00:23:38.942Z,53.95
2022-08-17T00:26:11.806Z,53.19
2022-08-17T00:28:39.103Z,51.84
2022-08-17T00:31:06.384Z,52.16
2022-08-17T00:33:33.662Z,53.33
2022-08-17T00:36:00.952Z,53.84
2022-08-17T00:38:28.225Z,55.35
2022-08-17T00:40:59.327Z,54.80
2022-08-17T00:43:26.739Z,54.62
2022-08-17T00:45:54.007Z,55.14
2022-08-17T00:48:26.195Z,54.85
2022-08-17T00:50:57.597Z,55.54
2022-08-17T00:53:24.892Z,55.11
2022-08-17T00:55:52.180Z,54.29
2022-08-17T00:58:20.388Z,54.14
2022-08-17T01:01:03.328Z,54.08
2022-08-17T01:03:30.648Z,53.71
2022-08-17T01:05:57.931Z,54.10
2022-08-17T01:08:25.490Z,52.87
2022-08-17T01:11:00.789Z,51.84
2022-08-17T01:13:28.970Z,51.32
2022-08-17T01:15:56.274Z,52.15
2022-08-17T01:18:23.567Z,52.01
2022-08-17T01:20:50.840Z,50.22
2022-08-17T01:23:20.509Z,49.99
2022-08-17T01:25:48.732Z,51.62
2022-08-17T01:28:52.568Z,52.53
2022-08-17T01:31:05.694Z,53.42
2022-08-17T01:33:32.983Z,52.95
2022-08-17T01:36:00.248Z,52.66
2022-08-17T01:38:27.554Z,52.99
2022-08-17T01:40:57.503Z,53.13
2022-08-17T01:43:25.092Z,53.29
2022-08-17T01:46:03.381Z,54.13
2022-08-17T01:48:31.214Z,54.05
2022-08-17T01:53:26.541Z,54.48
2022-08-17T01:55:53.833Z,54.69
2022-08-17T01:58:21.139Z,53.84
2022-08-17T02:00:48.418Z,53.83
2022-08-17T02:03:27.655Z,54.00
2022-08-17T02:05:54.945Z,56.81
2022-08-17T02:08:38.824Z,59.24
2022-08-17T02:11:11.337Z,58.87
2022-08-17T02:13:39.116Z,58.99
2022-08-17T02:16:06.419Z,60.36
2022-08-17T02:18:33.719Z,61.36
2022-08-17T02:21:01.007Z,63.00
2022-08-17T02:23:28.291Z,65.38
2022-08-17T02:25:55.581Z,64.59
2022-08-17T02:28:22.874Z,66.20
2022-08-17T02:31:00.993Z,70.53
2022-08-17T02:33:37.292Z,71.09
2022-08-17T02:36:10.687Z,70.46
2022-08-17T02:38:37.984Z,72.59
2022-08-17T02:41:05.265Z,74.89
2022-08-17T02:43:32.566Z,76.34
2022-08-17T02:45:59.851Z,76.22
2022-08-17T02:48:31.280Z,76.84
2022-08-17T02:50:59.214Z,71.78
2022-08-17T02:53:26.507Z,68.68
2022-08-17T02:55:53.820Z,66.05
2022-08-17T02:58:34.382Z,63.86
2022-08-17T03:01:03.179Z,76.99
2022-08-17T03:03:30.463Z,74.47
2022-08-17T03:05:57.744Z,71.08
2022-08-17T03:08:25.058Z,71.97
2022-08-17T03:10:52.348Z,69.16
2022-08-17T03:13:19.736Z,66.57
2022-08-17T03:15:47.015Z,64.79
2022-08-17T03:18:24.663Z,65.26
2022-08-17T03:20:53.140Z,62.73
2022-08-17T03:23:23.847Z,61.24
2022-08-17T03:25:53.113Z,61.71
2022-08-17T03:28:20.912Z,62.56
2022-08-17T03:30:48.238Z,63.06
2022-08-17T03:33:15.556Z,62.28
2022-08-17T03:35:42.854Z,62.26
2022-08-17T03:38:10.167Z,62.37
2022-08-17T03:40:58.931Z,62.31
2022-08-17T03:43:24.705Z,63.27
2022-08-17T03:45:51.986Z,63.20
2022-08-17T03:48:20.761Z,65.73
2022-08-17T03:50:48.061Z,66.53
2022-08-17T03:53:15.341Z,63.71
2022-08-17T03:55:42.618Z,63.12
2022-08-17T03:58:09.916Z,64.50
2022-08-17T04:00:39.695Z,68.54
2022-08-17T04:03:07.150Z,75.31
2022-08-17T04:05:36.348Z,79.95
2022-08-17T04:08:03.626Z,78.07
2022-08-17T04:10:33.968Z,77.03
2022-08-17T04:13:12.497Z,76.15
2022-08-17T04:15:39.814Z,75.77
2022-08-17T04:18:07.583Z,75.36
2022-08-17T04:20:38.371Z,75.02
2022-08-17T04:23:05.649Z,75.04
2022-08-17T04:25:32.926Z,74.36
2022-08-17T04:28:00.233Z,73.65
2022-08-17T04:30:27.507Z,74.88
2022-08-17T04:33:00.786Z,75.07
2022-08-17T04:35:32.962Z,76.39
2022-08-17T04:38:00.294Z,77.71
2022-08-17T04:40:27.638Z,77.38
2022-08-17T04:43:00.171Z,77.65
2022-08-17T04:45:32.079Z,78.25
2022-08-17T04:47:59.862Z,77.33
2022-08-17T04:50:27.166Z,77.63
2022-08-17T04:52:54.619Z,78.67
2022-08-17T04:55:22.122Z,80.81
2022-08-17T04:57:49.436Z,81.70
2022-08-17T05:00:16.717Z,81.19
2022-08-17T05:02:49.587Z,78.70
2022-08-17T05:05:19.746Z,76.15
2022-08-17T05:07:48.133Z,75.53
2022-08-17T05:10:15.420Z,74.65
2022-08-17T05:12:42.758Z,75.65
2022-08-17T05:15:10.082Z,76.26
2022-08-17T05:17:37.360Z,75.89
2022-08-17T05:20:04.665Z,78.15
2022-08-17T05:22:31.975Z,79.28
2022-08-17T05:24:59.252Z,79.14
2022-08-17T05:27:35.145Z,79.62
2022-08-17T05:30:03.284Z,78.73
2022-08-17T05:32:38.805Z,77.91
2022-08-17T05:35:07.547Z,77.30
2022-08-17T05:37:34.820Z,77.64
2022-08-17T05:40:02.159Z,79.12
2022-08-17T05:42:29.542Z,79.29
2022-08-17T05:44:56.820Z,79.45
2022-08-17T05:47:24.122Z,79.70
2022-08-17T05:49:51.433Z,80.01
2022-08-17T05:52:21.215Z,78.38
2022-08-17T05:54:48.510Z,77.61
2022-08-17T05:57:15.815Z,77.96
2022-08-17T05:59:43.318Z,78.26
2022-08-17T06:02:10.592Z,78.31
2022-08-17T06:04:37.919Z,76.09
2022-08-17T06:07:05.206Z,74.86
2022-08-17T06:09:33.995Z,71.84
2022-08-17T06:12:01.462Z,71.29
2022-08-17T06:14:29.817Z,72.18
2022-08-17T06:16:57.119Z,70.84
2022-08-17T06:19:24.435Z,70.27
2022-08-17T06:21:51.736Z,68.59
2022-08-17T06:24:19.028Z,70.02
2022-08-17T06:26:46.619Z,69.56
2022-08-17T06:29:18.737Z,70.50
2022-08-17T06:31:46.404Z,67.98
2022-08-17T06:34:15.781Z,68.70
2022-08-17T06:36:43.076Z,65.41
2022-08-17T06:39:10.386Z,61.59
2022-08-17T06:41:38.096Z,59.38
2022-08-17T06:44:05.485Z,62.56
2022-08-17T06:46:32.773Z,65.94
2022-08-17T06:49:00.082Z,67.82
2022-08-17T06:51:27.382Z,66.90
2022-08-17T06:53:54.694Z,63.66
2022-08-17T06:56:21.999Z,61.20
2022-08-17T06:58:49.305Z,60.72
2022-08-17T07:01:16.696Z,65.23
2022-08-17T07:03:44.052Z,65.94
2022-08-17T07:06:11.355Z,73.00
2022-08-17T07:08:38.677Z,73.01
2022-08-17T07:11:06.002Z,76.00
2022-08-17T07:13:33.294Z,77.42
2022-08-17T07:16:00.578Z,77.96
2022-08-17T07:18:27.896Z,79.14
2022-08-17T07:20:56.282Z,77.09
2022-08-17T07:23:23.611Z,78.97
2022-08-17T07:25:50.897Z,80.23
2022-08-17T07:28:18.214Z,79.29
2022-08-17T07:30:47.314Z,78.37
2022-08-17T07:33:15.243Z,75.10
2022-08-17T07:35:44.247Z,74.65
2022-08-17T07:38:24.989Z,75.62
2022-08-17T07:40:53.866Z,75.36
2022-08-17T07:43:23.184Z,74.26
2022-08-17T07:45:50.965Z,69.23
2022-08-17T07:48:18.256Z,67.05
2022-08-17T07:50:49.572Z,65.16
2022-08-17T07:53:18.047Z,61.77
2022-08-17T07:55:45.354Z,61.53
2022-08-17T07:58:12.643Z,59.15
2022-08-17T08:00:39.924Z,56.16
2022-08-17T08:03:07.228Z,61.03
2022-08-17T08:05:50.376Z,58.97
2022-08-17T08:08:18.196Z,57.64
2022-08-17T08:10:45.628Z,54.23
2022-08-17T08:13:14.240Z,51.58
2022-08-17T08:15:44.982Z,51.14
2022-08-17T08:18:45.916Z,49.08
2022-08-17T08:21:08.519Z,50.25
2022-08-17T08:23:35.802Z,55.43
2022-08-17T08:26:03.085Z,56.39
2022-08-17T08:28:30.404Z,56.53
2022-08-17T08:30:57.690Z,57.76
2022-08-17T08:33:24.976Z,57.79
2022-08-17T08:35:52.290Z,58.67
2022-08-17T08:38:21.528Z,58.68
2022-08-17T08:40:48.810Z,58.20
2022-08-17T08:43:16.326Z,57.62
2022-08-17T08:45:43.608Z,57.36
2022-08-17T08:48:12.821Z,59.34
2022-08-17T08:50:58.124Z,56.94
2022-08-17T08:53:25.956Z,55.22
2022-08-17T08:55:53.242Z,56.25
2022-08-17T08:58:31.802Z,54.46
2022-08-17T09:01:07.832Z,55.92
2022-08-17T09:03:52.907Z,55.45
2022-08-17T09:06:32.577Z,57.04
2022-08-17T09:09:06.927Z,52.68
2022-08-17T09:11:34.225Z,54.04
2022-08-17T09:14:28.194Z,55.33
2022-08-17T09:16:56.144Z,51.49
2022-08-17T09:19:25.368Z,49.49
2022-08-17T09:21:52.637Z,50.89
2022-08-17T09:24:20.680Z,49.64
2022-08-17T09:26:48.280Z,51.41
2022-08-17T09:29:15.550Z,49.44
2022-08-17T09:31:48.849Z,48.29
2022-08-17T09:34:16.858Z,45.61
2022-08-17T09:36:44.144Z,49.15
2022-08-17T09:39:11.423Z,49.64
2022-08-17T09:41:38.679Z,50.03
2022-08-17T09:44:23.110Z,47.21
2022-08-17T09:46:50.814Z,46.29
2022-08-17T09:49:20.715Z,47.77
2022-08-17T09:51:51.964Z,48.57
2022-08-17T09:54:38.009Z,45.52
2022-08-17T09:57:28.754Z,44.52
2022-08-17T09:59:53.709Z,49.68
2022-08-17T10:02:20.995Z,50.69
2022-08-17T10:04:48.395Z,49.14
2022-08-17T10:07:15.678Z,52.01
2022-08-17T10:09:42.956Z,50.44
2022-08-17T10:12:10.251Z,49.37
2022-08-17T10:14:44.435Z,49.91
2022-08-17T10:17:11.954Z,49.61
2022-08-17T10:19:39.257Z,50.98
2022-08-17T10:22:32.376Z,50.47
2022-08-17T10:25:21.129Z,49.17
2022-08-17T10:27:45.849Z,47.57
2022-08-17T10:30:13.178Z,48.91
2022-08-17T10:32:41.602Z,48.15
2022-08-17T10:35:08.904Z,47.49
2022-08-17T10:37:36.183Z,49.07
2022-08-17T10:40:03.495Z,49.38
2022-08-17T10:42:32.965Z,49.22
2022-08-17T10:45:00.590Z,48.80
2022-08-17T10:47:27.876Z,49.59
2022-08-17T10:49:55.270Z,47.43
2022-08-17T10:52:25.076Z,48.26
2022-08-17T10:54:58.344Z,47.81
2022-08-17T10:57:26.120Z,45.27
2022-08-17T10:59:53.412Z,47.68
2022-08-17T11:02:20.692Z,48.90
2022-08-17T11:04:47.992Z,48.53
2022-08-17T11:07:15.271Z,47.57
2022-08-17T11:09:42.559Z,47.25
2022-08-17T11:12:09.855Z,47.98
2022-08-17T11:14:37.153Z,49.01
2022-08-17T11:17:04.438Z,48.47
2022-08-17T11:19:31.890Z,46.98
2022-08-17T11:21:59.173Z,48.18
2022-08-17T11:24:26.445Z,49.93
2022-08-17T11:26:53.737Z,48.55
2022-08-17T11:29:21.017Z,47.26
2022-08-17T11:31:51.977Z,48.42
2022-08-17T11:34:21.505Z,48.08
2022-08-17T11:36:48.774Z,45.50
2022-08-17T11:39:16.050Z,45.49
2022-08-17T11:41:43.366Z,45.53
2022-08-17T11:44:10.653Z,43.83
2022-08-17T11:46:37.938Z,45.51
2022-08-17T11:49:08.826Z,42.50
2022-08-17T11:51:36.476Z,44.00
2022-08-17T11:54:31.196Z,44.15
2022-08-17T11:56:51.000Z,46.58
2022-08-17T11:59:18.285Z,45.45
2022-08-17T12:01:45.569Z,44.82
2022-08-17T12:04:12.888Z,44.07
2022-08-17T12:06:40.191Z,47.12
2022-08-17T12:09:07.456Z,46.46
2022-08-17T12:12:11.010Z,45.86
2022-08-17T12:14:29.409Z,44.14
2022-08-17T12:17:07.312Z,44.70
2022-08-17T12:19:36.129Z,43.29
2022-08-17T12:22:03.392Z,43.10
2022-08-17T12:24:30.689Z,43.87
2022-08-17T12:26:57.969Z,44.58
2022-08-17T12:29:35.439Z,45.13
2022-08-17T12:32:06.305Z,42.76
2022-08-17T12:34:33.586Z,42.72
2022-08-17T12:37:00.871Z,42.90
2022-08-17T12:39:28.211Z,42.32
2022-08-17T12:42:02.712Z,40.90
2022-08-17T12:44:30.274Z,41.05
2022-08-17T12:46:57.571Z,41.72
2022-08-17T12:49:24.843Z,43.51
2022-08-17T12:51:52.140Z,42.57
2022-08-17T12:54:19.403Z,44.21
2022-08-17T12:56:47.667Z,42.38
2022-08-17T12:59:14.995Z,42.59
2022-08-17T13:01:56.945Z,42.31
2022-08-17T13:04:24.585Z,42.46
2022-08-17T13:07:00.007Z,42.41
2022-08-17T13:09:35.399Z,41.96
2022-08-17T13:12:03.429Z,41.25
2022-08-17T13:14:33.330Z,42.89
2022-08-17T13:17:01.429Z,42.73
2022-08-17T13:19:29.838Z,42.53
2022-08-17T13:22:07.948Z,42.47
2022-08-17T13:24:38.241Z,42.11
2022-08-17T13:27:08.020Z,41.91
2022-08-17T13:29:35.651Z,41.14
2022-08-17T13:32:05.007Z,42.09
2022-08-17T13:34:33.302Z,40.36
2022-08-17T13:37:00.777Z,39.16
2022-08-17T13:39:33.840Z,39.93
2022-08-17T13:42:01.153Z,41.21
2022-08-17T13:44:28.433Z,41.35
2022-08-17T13:46:57.235Z,41.24
2022-08-17T13:49:24.787Z,41.59
2022-08-17T13:52:09.292Z,40.81
2022-08-17T13:54:37.655Z,41.38
2022-08-17T13:57:04.934Z,41.02
2022-08-17T13:59:52.749Z,41.28
2022-08-17T14:02:19.572Z,41.73
2022-08-17T14:04:46.857Z,41.96
2022-08-17T14:07:14.116Z,41.50
2022-08-17T14:09:41.411Z,42.33
2022-08-17T14:12:08.693Z,42.89
2022-08-17T14:14:36.001Z,43.32
2022-08-17T14:17:03.281Z,43.66
2022-08-17T14:19:30.548Z,42.62
2022-08-17T14:21:57.850Z,41.80
2022-08-17T14:24:25.123Z,42.82
2022-08-17T14:26:52.403Z,40.19
2022-08-17T14:29:19.702Z,41.68
2022-08-17T14:31:53.384Z,41.84
2022-08-17T14:34:21.874Z,42.46
2022-08-17T14:36:49.157Z,41.36
2022-08-17T14:39:16.488Z,41.57
2022-08-17T14:41:43.772Z,42.05
2022-08-17T14:44:13.008Z,40.60
2022-08-17T14:46:40.394Z,39.08
2022-08-17T14:49:07.672Z,40.25
2022-08-17T14:51:35.616Z,39.97
2022-08-17T14:54:10.842Z,39.73
2022-08-17T14:56:38.233Z,41.08
2022-08-17T14:59:05.544Z,40.14
2022-08-17T15:01:32.882Z,40.13
2022-08-17T15:04:00.185Z,39.11
2022-08-17T15:06:27.481Z,39.47
2022-08-17T15:08:54.749Z,39.13
2022-08-17T15:11:22.067Z,39.05
2022-08-17T15:13:52.355Z,39.18
2022-08-17T15:16:20.444Z,39.71
2022-08-17T15:18:47.711Z,39.94
2022-08-17T15:21:14.990Z,39.73
2022-08-17T15:23:43.565Z,40.52
2022-08-17T15:26:10.953Z,40.40
2022-08-17T15:28:38.251Z,41.99
2022-08-17T15:31:05.533Z,41.98
2022-08-17T15:33:32.840Z,42.37
2022-08-17T15:36:00.115Z,43.13
2022-08-17T15:38:27.391Z,44.01
2022-08-17T15:40:54.681Z,44.73
2022-08-17T15:43:27.057Z,45.05
2022-08-17T15:45:59.608Z,45.32
2022-08-17T15:48:27.417Z,46.45
2022-08-17T15:50:54.688Z,47.32
2022-08-17T15:53:21.964Z,47.81
2022-08-17T15:55:49.248Z,47.92
2022-08-17T15:58:19.280Z,49.29
2022-08-17T16:00:49.422Z,49.90
2022-08-17T16:04:04.778Z,49.54
2022-08-17T16:06:08.103Z,49.72
2022-08-17T16:08:39.020Z,49.17
2022-08-17T16:11:06.284Z,49.59
2022-08-17T16:13:33.560Z,49.70
2022-08-17T16:16:00.907Z,49.47
2022-08-17T16:18:28.198Z,49.64
2022-08-17T16:20:55.501Z,49.87
2022-08-17T16:23:22.886Z,50.40
2022-08-17T16:25:52.919Z,50.66
2022-08-17T16:28:21.307Z,52.24
2022-08-17T16:30:48.618Z,57.04
2022-08-17T16:33:15.888Z,65.51
2022-08-17T16:35:43.160Z,71.40
2022-08-17T16:38:10.473Z,73.73
2022-08-17T16:40:37.747Z,76.78
2022-08-17T16:43:05.031Z,76.31
2022-08-17T16:45:32.356Z,75.93
2022-08-17T16:47:59.643Z,77.83
2022-08-17T16:50:26.939Z,73.89
2022-08-17T16:52:54.230Z,76.46
2022-08-17T16:55:21.508Z,73.84
2022-08-17T16:57:50.587Z,74.39
2022-08-17T17:00:18.186Z,73.74
2022-08-17T17:02:45.489Z,76.54
2022-08-17T17:05:12.755Z,77.54
2022-08-17T17:07:40.043Z,80.02
2022-08-17T17:10:07.320Z,80.71
2022-08-17T17:13:03.791Z,82.25
2022-08-17T17:15:22.371Z,80.28
2022-08-17T17:17:49.863Z,79.79
2022-08-17T17:20:17.211Z,79.08
2022-08-17T17:22:44.513Z,77.55
2022-08-17T17:25:11.881Z,77.27
2022-08-17T17:27:39.191Z,77.76
2022-08-17T17:30:06.478Z,83.33
2022-08-17T17:32:33.750Z,84.66
2022-08-17T17:35:01.047Z,82.45
2022-08-17T17:37:28.324Z,84.21
2022-08-17T17:39:55.683Z,84.89
2022-08-17T17:42:22.981Z,81.96
2022-08-17T17:44:50.266Z,82.00
2022-08-17T17:47:17.543Z,77.93
2022-08-17T17:49:44.832Z,75.58
2022-08-17T17:52:16.780Z,76.98
2022-08-17T17:54:46.347Z,75.65
2022-08-17T17:57:13.619Z,73.73
2022-08-17T17:59:44.030Z,72.20
2022-08-17T18:02:11.690Z,72.58
2022-08-17T18:04:39.005Z,70.88
2022-08-17T18:07:06.307Z,69.68
2022-08-17T18:09:37.435Z,71.08
2022-08-17T18:12:06.734Z,70.80
2022-08-17T18:14:34.148Z,69.27
2022-08-17T18:17:01.450Z,68.34
2022-08-17T18:19:28.833Z,68.31
2022-08-17T18:21:58.083Z,68.04
2022-08-17T18:24:25.360Z,67.59
2022-08-17T18:26:52.645Z,63.76
2022-08-17T18:29:22.425Z,63.84
2022-08-17T18:31:49.689Z,64.98
2022-08-17T18:34:45.506Z,65.85
2022-08-17T18:37:04.228Z,69.97
2022-08-17T18:39:31.546Z,67.86
2022-08-17T18:41:58.846Z,65.92
2022-08-17T18:44:26.138Z,72.50
2022-08-17T18:46:53.420Z,76.86
2022-08-17T18:49:20.695Z,77.89
2022-08-17T18:51:48.000Z,76.25
2022-08-17T18:54:15.265Z,75.55
2022-08-17T18:56:42.546Z,77.43
2022-08-17T18:59:09.847Z,77.72
2022-08-17T19:01:41.752Z,76.67
2022-08-17T19:04:21.109Z,75.17
2022-08-17T19:06:48.490Z,73.43
2022-08-17T19:09:15.831Z,72.12
2022-08-17T19:11:43.139Z,71.83
2022-08-17T19:14:10.445Z,73.79
2022-08-17T19:16:37.720Z,75.11
2022-08-17T19:19:04.988Z,75.24
2022-08-17T19:21:32.302Z,74.93
2022-08-17T19:23:59.582Z,77.26
2022-08-17T19:26:54.283Z,75.64
2022-08-17T19:29:14.106Z,75.18
2022-08-17T19:31:41.393Z,74.46
2022-08-17T19:34:08.681Z,74.21
2022-08-17T19:36:35.977Z,74.06
2022-08-17T19:39:03.371Z,73.85
2022-08-17T19:41:32.608Z,73.71
2022-08-17T19:43:59.880Z,73.14
2022-08-17T19:46:27.179Z,72.76
2022-08-17T19:48:54.450Z,72.49
2022-08-17T19:51:21.772Z,70.44
2022-08-17T19:54:05.075Z,70.16
2022-08-17T19:56:33.031Z,69.73
2022-08-17T19:59:00.304Z,69.85
2022-08-17T20:01:33.944Z,68.12
2022-08-17T20:04:01.948Z,70.24
2022-08-17T20:06:29.240Z,68.92
2022-08-17T20:08:56.527Z,69.24
2022-08-17T20:11:23.816Z,68.00
2022-08-17T20:13:51.086Z,66.83
2022-08-17T20:16:18.362Z,65.24
2022-08-17T20:18:47.443Z,65.00
2022-08-17T20:21:20.374Z,63.86
2022-08-17T20:23:47.896Z,62.71
2022-08-17T20:26:19.072Z,63.50
2022-08-17T20:28:46.772Z,62.80
2022-08-17T20:31:14.157Z,61.26
2022-08-17T20:33:41.439Z,60.88
2022-08-17T20:36:08.714Z,59.53
2022-08-17T20:38:36.020Z,60.16
2022-08-17T20:41:03.310Z,61.19
2022-08-17T20:43:30.919Z,60.85
2022-08-17T20:45:58.223Z,61.67
2022-08-17T20:48:37.961Z,62.46
2022-08-17T20:51:06.135Z,62.92
2022-08-17T20:53:33.417Z,65.61
2022-08-17T20:56:00.684Z,69.90
2022-08-17T20:58:30.817Z,71.57
2022-08-17T21:00:58.712Z,71.10
2022-08-17T21:03:26.137Z,71.48
2022-08-17T21:05:53.410Z,71.28
2022-08-17T21:08:27.470Z,70.91
2022-08-17T21:10:54.746Z,71.45
2022-08-17T21:13:22.027Z,71.49
2022-08-17T21:15:51.332Z,72.26
2022-08-17T21:18:18.612Z,71.95
2022-08-17T21:20:45.880Z,71.51
2022-08-17T21:23:13.167Z,71.41
2022-08-17T21:25:40.474Z,71.96
2022-08-17T21:28:07.748Z,72.64
2022-08-17T21:30:37.927Z,73.95
2022-08-17T21:33:07.455Z,75.97
2022-08-17T21:35:38.937Z,77.12
2022-08-17T21:38:06.364Z,77.69
2022-08-17T21:40:33.810Z,77.35
2022-08-17T21:43:01.094Z,77.78
2022-08-17T21:45:28.365Z,76.95
2022-08-17T21:47:55.761Z,77.18
2022-08-17T21:50:23.040Z,77.56
2022-08-17T21:52:50.353Z,78.41
2022-08-17T21:55:17.646Z,77.89
2022-08-17T21:57:52.902Z,78.69
2022-08-17T22:00:32.170Z,79.01
2022-08-17T22:02:59.436Z,79.29
2022-08-17T22:05:26.709Z,81.54
2022-08-17T22:07:54.759Z,82.97
2022-08-17T22:10:22.038Z,84.79
2022-08-17T22:12:49.315Z,86.13
2022-08-17T22:15:16.619Z,87.45
2022-08-17T22:17:44.026Z,87.76
2022-08-17T22:20:11.354Z,86.52
2022-08-17T22:22:38.656Z,83.10
2022-08-17T22:25:05.950Z,77.08
2022-08-17T22:27:33.229Z,74.09
2022-08-17T22:30:00.501Z,73.81
2022-08-17T22:32:27.798Z,70.84
2022-08-17T22:34:56.501Z,72.46
2022-08-17T22:37:26.737Z,75.88
2022-08-17T22:39:55.223Z,78.87
2022-08-17T22:42:22.508Z,77.95
2022-08-17T22:44:49.775Z,77.48
2022-08-17T22:47:17.179Z,74.37
2022-08-17T22:49:54.208Z,71.98
2022-08-17T22:52:21.872Z,75.84
2022-08-17T22:54:49.145Z,79.27
2022-08-17T22:57:18.977Z,86.26
2022-08-17T22:59:46.458Z,84.24
2022-08-17T23:02:13.755Z,82.80
2022-08-17T23:04:41.051Z,86.68
2022-08-17T23:07:08.327Z,86.58
2022-08-17T23:09:35.615Z,83.57
2022-08-17T23:12:02.896Z,82.78
2022-08-17T23:14:30.160Z,82.88
2022-08-17T23:16:57.463Z,78.50
2022-08-17T23:19:24.732Z,75.10
2022-08-17T23:21:52.024Z,72.85
2022-08-17T23:24:19.298Z,69.58
2022-08-17T23:26:46.574Z,66.75
2022-08-17T23:29:13.873Z,65.09
2022-08-17T23:31:41.140Z,62.54
2022-08-17T23:34:09.159Z,64.73
2022-08-17T23:36:36.586Z,72.16
2022-08-17T23:39:03.856Z,77.67
2022-08-17T23:41:31.163Z,76.93
2022-08-17T23:43:58.439Z,83.13
2022-08-17T23:46:25.724Z,80.81
2022-08-17T23:48:53.009Z,85.05
2022-08-17T23:51:20.294Z,84.58
2022-08-17T23:53:47.596Z,88.83
2022-08-17T23:56:14.879Z,88.38
2022-08-17T23:58:42.526Z,90.31
